Time;durP1;ratioP1;P1;durP2;ratioP2;P2;SDS_P1;SDS_P2;PMS_P1;PMS_P2;Temp;Humidity;BMP_temperature;BMP_pressure;BME280_temperature;BME280_humidity;BME280_pressure;Samples;Min_cycle;Max_cycle;Signal;HPM_P1;HPM_P2
2023/10/25 00:01:35;;;;;;;12.80;11.37;;;12.40;99.90;;;;;;5091208;28;20478;-67
2023/10/25 00:04:01;;;;;;;12.07;10.77;;;12.30;99.90;;;;;;5087905;28;20330;-67
2023/10/25 00:06:28;;;;;;;12.80;11.43;;;12.30;99.90;;;;;;5088691;28;20317;-67
2023/10/25 00:08:55;;;;;;;11.63;10.40;;;12.30;99.90;;;;;;5087973;28;20325;-67
2023/10/25 00:11:23;;;;;;;11.83;10.63;;;12.30;99.90;;;;;;5091723;28;20309;-67
2023/10/25 00:13:50;;;;;;;11.37;10.17;;;12.30;99.90;;;;;;5107997;28;20233;-67
2023/10/25 00:16:17;;;;;;;11.43;10.20;;;12.30;99.90;;;;;;5107742;28;20206;-67
2023/10/25 00:18:44;;;;;;;11.70;9.27;;;12.30;99.90;;;;;;5091154;28;20714;-67
2023/10/25 00:21:11;;;;;;;9.37;8.37;;;12.30;99.90;;;;;;5087309;28;20730;-68
2023/10/25 00:23:38;;;;;;;7.70;7.00;;;12.30;99.90;;;;;;5103019;28;21093;-67
2023/10/25 00:26:05;;;;;;;8.07;7.37;;;12.20;99.90;;;;;;5102607;28;20244;-67
2023/10/25 00:28:33;;;;;;;7.73;7.17;;;12.20;99.90;;;;;;5087551;28;20317;-67
2023/10/25 00:31:00;;;;;;;7.63;7.03;;;12.20;99.90;;;;;;5087269;28;20301;-67
2023/10/25 00:33:28;;;;;;;6.90;6.33;;;12.20;99.90;;;;;;5089763;28;20221;-67
2023/10/25 00:35:54;;;;;;;7.33;6.67;;;12.20;99.90;;;;;;5087082;28;20230;-67
2023/10/25 00:38:22;;;;;;;7.17;6.67;;;12.20;99.90;;;;;;5086808;28;20211;-68
2023/10/25 00:40:48;;;;;;;7.27;6.63;;;12.20;99.90;;;;;;5086768;28;20203;-67
2023/10/25 00:43:17;;;;;;;6.90;6.27;;;12.20;99.90;;;;;;5106333;28;20622;-67
2023/10/25 00:46:11;;;;;;;5.97;5.50;;;12.30;99.90;;;;;;5107547;28;20202;-67
2023/10/25 00:48:40;;;;;;;6.23;5.73;;;12.30;99.90;;;;;;5107061;28;20219;-67
2023/10/25 00:51:08;;;;;;;5.10;4.80;;;12.30;99.90;;;;;;5107221;28;20292;-68
2023/10/25 00:53:39;;;;;;;6.03;5.63;;;12.30;99.90;;;;;;5103843;28;20590;-67
2023/10/25 00:56:08;;;;;;;5.77;5.37;;;12.30;99.90;;;;;;5086861;28;20195;-68
2023/10/25 00:58:35;;;;;;;5.23;4.83;;;12.30;99.90;;;;;;5086603;28;20217;-68
2023/10/25 01:01:04;;;;;;;5.90;5.50;;;12.30;99.90;;;;;;5086762;28;20289;-67
2023/10/25 01:03:31;;;;;;;5.90;5.30;;;12.20;99.90;;;;;;5085784;28;20272;-67
2023/10/25 01:05:58;;;;;;;6.00;5.50;;;12.30;99.90;;;;;;5093679;28;20204;-68
2023/10/25 01:08:25;;;;;;;5.83;5.37;;;12.30;99.90;;;;;;5105744;28;20604;-68
2023/10/25 01:10:54;;;;;;;5.67;5.27;;;12.20;99.90;;;;;;5093433;28;20636;-67
2023/10/25 01:13:21;;;;;;;5.63;5.30;;;12.20;99.90;;;;;;5086333;28;20310;-67
2023/10/25 01:15:49;;;;;;;5.70;5.30;;;12.20;99.90;;;;;;5086178;28;20213;-67
2023/10/25 01:18:17;;;;;;;5.73;5.10;;;12.20;99.90;;;;;;5086431;28;20206;-67
2023/10/25 01:20:45;;;;;;;6.33;5.20;;;12.20;99.90;;;;;;5099523;28;20302;-67
2023/10/25 01:23:13;;;;;;;5.40;5.00;;;12.20;99.90;;;;;;5106744;28;20226;-67
2023/10/25 01:25:41;;;;;;;5.00;4.70;;;12.20;99.90;;;;;;5105140;28;20394;-68
2023/10/25 01:28:08;;;;;;;4.83;4.50;;;12.20;99.90;;;;;;5086320;28;20239;-67
2023/10/25 01:30:35;;;;;;;4.63;4.33;;;12.20;99.90;;;;;;5086237;28;20672;-68
2023/10/25 01:33:02;;;;;;;5.20;4.80;;;12.20;99.90;;;;;;5085755;28;20908;-68
2023/10/25 01:35:29;;;;;;;5.10;4.80;;;12.20;99.90;;;;;;5102619;28;20210;-68
2023/10/25 01:37:56;;;;;;;5.63;5.07;;;12.10;99.90;;;;;;5106166;28;20584;-68
2023/10/25 01:40:23;;;;;;;5.20;4.90;;;12.20;99.90;;;;;;5106317;28;20941;-68
2023/10/25 01:42:51;;;;;;;7.77;6.97;;;12.20;99.90;;;;;;5101144;28;20225;-67
2023/10/25 01:45:19;;;;;;;7.13;6.53;;;12.20;99.90;;;;;;5106305;28;20248;-67
2023/10/25 01:47:45;;;;;;;8.23;7.53;;;12.20;99.90;;;;;;5105809;28;20863;-68
2023/10/25 01:50:12;;;;;;;10.67;9.53;;;12.20;99.90;;;;;;5106116;28;20479;-67
2023/10/25 01:52:39;;;;;;;10.60;9.70;;;12.20;99.90;;;;;;5106042;28;20245;-67
2023/10/25 01:55:06;;;;;;;11.37;10.23;;;12.20;99.90;;;;;;5093658;28;20209;-67
2023/10/25 01:57:35;;;;;;;12.20;10.80;;;12.10;99.90;;;;;;5085652;28;20246;-67
2023/10/25 02:00:03;;;;;;;12.57;11.37;;;12.10;99.90;;;;;;5085595;28;20203;-67
2023/10/25 02:02:30;;;;;;;12.57;11.47;;;12.20;99.90;;;;;;5085972;28;20199;-67
2023/10/25 02:04:56;;;;;;;13.47;12.17;;;12.10;99.90;;;;;;5097879;28;20236;-67
2023/10/25 02:07:23;;;;;;;13.23;11.57;;;12.20;99.90;;;;;;5104970;28;20957;-67
2023/10/25 02:09:49;;;;;;;13.17;11.80;;;12.20;99.90;;;;;;5105673;28;20316;-67
2023/10/25 02:12:16;;;;;;;13.30;12.00;;;12.30;99.90;;;;;;5097018;28;20732;-67
2023/10/25 02:14:44;;;;;;;17.27;12.93;;;12.30;99.90;;;;;;5098003;28;20271;-67
2023/10/25 02:17:11;;;;;;;13.30;12.07;;;12.30;99.90;;;;;;5085273;28;20693;-67
2023/10/25 02:19:39;;;;;;;13.53;12.33;;;12.30;99.90;;;;;;5084870;28;20653;-67
2023/10/25 02:22:06;;;;;;;14.47;12.97;;;12.20;99.90;;;;;;5095166;28;20321;-65
2023/10/25 02:24:33;;;;;;;13.33;12.17;;;12.20;99.90;;;;;;5105619;28;20205;-66
2023/10/25 02:27:00;;;;;;;13.77;12.47;;;12.20;99.90;;;;;;5095866;28;20214;-66
2023/10/25 02:29:27;;;;;;;14.60;13.20;;;12.20;99.90;;;;;;5084942;28;20244;-67
2023/10/25 02:31:55;;;;;;;14.27;12.97;;;12.10;99.90;;;;;;5095008;28;20210;-68
2023/10/25 02:34:22;;;;;;;14.67;13.27;;;12.10;99.90;;;;;;5104952;27;20218;-66
2023/10/25 02:36:49;;;;;;;15.37;13.77;;;12.10;99.90;;;;;;5105278;28;20337;-67
2023/10/25 02:39:17;;;;;;;15.23;13.63;;;12.00;99.90;;;;;;5105256;28;20206;-66
2023/10/25 02:41:44;;;;;;;16.03;14.30;;;12.10;99.90;;;;;;5105367;28;20202;-66
2023/10/25 02:44:11;;;;;;;15.53;14.13;;;12.00;99.90;;;;;;5098480;28;20663;-66
2023/10/25 02:46:37;;;;;;;17.23;15.53;;;12.10;99.90;;;;;;5104987;28;20208;-66
2023/10/25 02:49:06;;;;;;;15.40;13.80;;;12.10;99.90;;;;;;5104541;28;20240;-67
2023/10/25 02:51:33;;;;;;;15.67;14.13;;;12.10;99.90;;;;;;5104732;28;20202;-67
2023/10/25 02:54:00;;;;;;;15.17;13.57;;;12.10;99.90;;;;;;5105175;28;20209;-67
2023/10/25 02:56:26;;;;;;;15.83;14.20;;;12.10;99.90;;;;;;5100608;28;20209;-66
2023/10/25 02:58:53;;;;;;;15.57;13.97;;;12.00;99.90;;;;;;5104862;28;20221;-67
2023/10/25 03:01:22;;;;;;;15.77;14.27;;;12.00;99.90;;;;;;5100429;28;20267;-66
2023/10/25 03:03:49;;;;;;;15.73;14.13;;;12.00;99.90;;;;;;5104626;28;20206;-66
2023/10/25 03:06:17;;;;;;;16.63;14.93;;;11.90;99.90;;;;;;5104714;28;20316;-66
2023/10/25 03:08:44;;;;;;;16.00;14.47;;;11.90;99.90;;;;;;5094893;28;20305;-66
2023/10/25 03:11:11;;;;;;;17.23;14.03;;;12.00;99.90;;;;;;5084577;28;20234;-66
2023/10/25 03:13:39;;;;;;;15.00;13.60;;;12.00;99.90;;;;;;5091984;28;20297;-66
2023/10/25 03:16:06;;;;;;;15.10;13.57;;;12.00;99.90;;;;;;5105225;28;20210;-66
2023/10/25 03:18:33;;;;;;;15.80;14.20;;;11.90;99.90;;;;;;5092918;28;20248;-66
2023/10/25 03:21:04;;;;;;;14.07;12.77;;;11.90;99.90;;;;;;5084465;28;20211;-66
2023/10/25 03:23:33;;;;;;;15.10;13.60;;;11.90;99.90;;;;;;5084450;28;20347;-66
2023/10/25 03:26:04;;;;;;;14.53;13.17;;;11.80;99.90;;;;;;5084601;28;20205;-65
2023/10/25 03:28:31;;;;;;;12.93;11.73;;;11.80;99.90;;;;;;5104658;28;20205;-66
2023/10/25 03:30:58;;;;;;;13.73;12.50;;;11.80;99.90;;;;;;5104928;28;20794;-66
2023/10/25 03:33:25;;;;;;;11.87;10.90;;;11.70;99.90;;;;;;5104570;28;20206;-66
2023/10/25 03:35:53;;;;;;;12.20;11.10;;;11.70;99.90;;;;;;5104644;28;20245;-66
2023/10/25 03:38:20;;;;;;;12.07;11.07;;;11.70;99.90;;;;;;5105372;28;20191;-66
2023/10/25 03:40:48;;;;;;;13.37;12.07;;;11.70;99.90;;;;;;5108623;28;20712;-66
2023/10/25 03:43:15;;;;;;;13.33;12.07;;;11.70;99.90;;;;;;5108393;28;20316;-66
2023/10/25 03:45:42;;;;;;;13.23;11.87;;;11.70;99.90;;;;;;5108626;28;20738;-66
2023/10/25 03:48:09;;;;;;;13.17;11.97;;;11.70;99.90;;;;;;5108385;28;20634;-66
2023/10/25 03:50:37;;;;;;;13.67;12.27;;;11.70;99.90;;;;;;5108119;28;20858;-66
2023/10/25 03:53:05;;;;;;;14.87;13.43;;;11.70;99.90;;;;;;5108554;28;20213;-65
2023/10/25 03:55:31;;;;;;;14.20;12.80;;;11.60;99.90;;;;;;5108035;28;20571;-66
2023/10/25 03:58:00;;;;;;;14.13;12.83;;;11.50;99.90;;;;;;5108046;28;20811;-65
2023/10/25 04:00:27;;;;;;;14.70;13.27;;;11.50;99.90;;;;;;5087844;28;20297;-66
2023/10/25 04:02:54;;;;;;;13.57;12.30;;;11.50;99.90;;;;;;5087573;28;20222;-66
2023/10/25 04:05:20;;;;;;;14.10;12.80;;;11.50;99.90;;;;;;5087207;28;20213;-66
2023/10/25 04:07:51;;;;;;;14.67;13.37;;;11.40;99.90;;;;;;5087574;28;20210;-65
2023/10/25 04:10:18;;;;;;;14.00;12.63;;;11.40;99.90;;;;;;5087085;28;20222;-66
2023/10/25 04:12:44;;;;;;;14.77;13.37;;;11.40;99.90;;;;;;5087761;28;20326;-66
2023/10/25 04:15:13;;;;;;;15.50;13.13;;;11.40;99.90;;;;;;5092858;28;20286;-66
2023/10/25 04:17:40;;;;;;;14.50;13.10;;;11.30;99.90;;;;;;5087257;28;20327;-66
2023/10/25 04:20:08;;;;;;;15.73;13.40;;;11.40;99.90;;;;;;5087131;28;20751;-66
2023/10/25 04:22:36;;;;;;;14.90;13.40;;;11.30;99.90;;;;;;5087186;28;20223;-66
2023/10/25 04:25:04;;;;;;;15.10;13.57;;;11.30;99.90;;;;;;5087407;28;20211;-66
2023/10/25 04:27:31;;;;;;;15.20;13.70;;;11.30;99.90;;;;;;5087519;28;20211;-66
2023/10/25 04:29:58;;;;;;;15.03;13.53;;;11.30;99.90;;;;;;5087258;28;20307;-66
2023/10/25 04:32:26;;;;;;;15.33;13.90;;;11.30;99.90;;;;;;5087463;28;20206;-66
2023/10/25 04:34:53;;;;;;;16.47;13.37;;;11.40;99.90;;;;;;5087086;28;20313;-66
2023/10/25 04:37:20;;;;;;;14.83;13.43;;;11.40;99.90;;;;;;5086969;28;20230;-65
2023/10/25 04:39:51;;;;;;;15.50;13.90;;;11.50;99.90;;;;;;5087038;28;20218;-67
2023/10/25 04:42:18;;;;;;;14.37;12.87;;;11.50;99.90;;;;;;5087038;28;20302;-66
2023/10/25 04:44:45;;;;;;;14.17;12.77;;;11.50;99.90;;;;;;5104008;28;20763;-67
2023/10/25 04:47:13;;;;;;;14.43;12.93;;;11.60;99.90;;;;;;5107391;28;20293;-67
2023/10/25 04:49:41;;;;;;;15.07;13.60;;;11.60;99.90;;;;;;5106466;28;21055;-66
2023/10/25 04:52:08;;;;;;;13.87;12.50;;;11.50;99.90;;;;;;5107624;28;20229;-67
2023/10/25 04:54:35;;;;;;;16.00;13.47;;;11.60;99.90;;;;;;5107051;28;20329;-67
2023/10/25 04:57:02;;;;;;;20.73;18.53;;;11.60;99.90;;;;;;5097800;28;20305;-67
2023/10/25 04:59:30;;;;;;;17.10;15.33;;;11.50;99.90;;;;;;5086792;28;20215;-67
2023/10/25 05:01:57;;;;;;;14.93;13.43;;;11.60;99.90;;;;;;5102573;28;20214;-67
2023/10/25 05:04:24;;;;;;;14.97;13.47;;;11.50;99.90;;;;;;5106665;28;20244;-67
2023/10/25 05:06:55;;;;;;;14.43;13.03;;;11.50;99.90;;;;;;5106958;28;20202;-67
2023/10/25 05:09:22;;;;;;;14.83;13.23;;;11.40;99.90;;;;;;5106346;28;20198;-66
2023/10/25 05:11:57;;;;;;;14.43;12.97;;;11.50;99.90;;;;;;5106828;27;20236;-67
2023/10/25 05:14:24;;;;;;;14.47;13.07;;;11.50;99.90;;;;;;5106291;28;20201;-67
2023/10/25 05:16:51;;;;;;;13.80;12.43;;;11.50;99.90;;;;;;5106773;28;20285;-67
2023/10/25 05:19:19;;;;;;;15.33;13.57;;;11.50;99.90;;;;;;5106050;28;20297;-67
2023/10/25 05:21:49;;;;;;;13.83;12.43;;;11.50;99.90;;;;;;5106598;28;20591;-66
2023/10/25 05:24:17;;;;;;;14.57;13.07;;;11.50;99.90;;;;;;5106488;28;20293;-67
2023/10/25 05:26:45;;;;;;;14.00;12.60;;;11.50;99.90;;;;;;5101874;28;20241;-66
2023/10/25 05:29:12;;;;;;;14.13;12.60;;;11.50;99.90;;;;;;5106527;28;20297;-67
2023/10/25 05:31:42;;;;;;;14.20;12.83;;;11.50;99.90;;;;;;5105958;28;20282;-67
2023/10/25 05:34:10;;;;;;;14.27;12.77;;;11.50;99.90;;;;;;5105962;28;20203;-67
2023/10/25 05:36:38;;;;;;;16.17;13.37;;;11.50;99.90;;;;;;5105924;28;20240;-66
2023/10/25 05:39:06;;;;;;;14.40;12.90;;;11.50;99.90;;;;;;5105943;28;20212;-67
2023/10/25 05:41:39;;;;;;;13.80;12.37;;;11.50;99.90;;;;;;5106103;28;20985;-67
2023/10/25 05:44:10;;;;;;;15.20;13.13;;;11.40;99.90;;;;;;5106299;28;20206;-64
2023/10/25 05:46:37;;;;;;;13.93;12.47;;;11.30;99.90;;;;;;5106270;28;20294;-64
2023/10/25 05:49:04;;;;;;;13.63;12.33;;;11.30;99.90;;;;;;5105851;28;20206;-67
2023/10/25 05:51:32;;;;;;;14.90;12.87;;;11.40;99.90;;;;;;5105228;28;20692;-67
2023/10/25 05:54:00;;;;;;;13.13;11.90;;;11.30;99.90;;;;;;5105561;27;20759;-66
2023/10/25 05:56:28;;;;;;;12.83;11.63;;;11.30;99.90;;;;;;5105897;28;20206;-67
2023/10/25 05:58:57;;;;;;;18.00;13.97;;;11.30;99.90;;;;;;5105933;28;20214;-67
2023/10/25 06:01:32;;;;;;;15.83;13.73;;;11.20;99.90;;;;;;5105298;28;20470;-67
2023/10/25 06:04:00;;;;;;;16.23;14.53;;;11.10;99.90;;;;;;5097511;28;20298;-67
2023/10/25 06:06:28;;;;;;;17.70;14.63;;;11.10;99.90;;;;;;5089880;28;20213;-67
2023/10/25 06:08:55;;;;;;;19.87;14.33;;;11.10;99.90;;;;;;5105919;28;20774;-66
2023/10/25 06:11:22;;;;;;;18.37;14.20;;;11.10;99.90;;;;;;5105507;28;20540;-67
2023/10/25 06:13:49;;;;;;;17.03;14.57;;;11.10;99.90;;;;;;5105669;28;20296;-66
2023/10/25 06:16:19;;;;;;;17.73;14.97;;;11.00;99.90;;;;;;5105904;28;20682;-67
2023/10/25 06:18:46;;;;;;;16.80;15.00;;;11.10;99.90;;;;;;5105598;28;20751;-67
2023/10/25 06:21:12;;;;;;;18.80;16.17;;;11.10;99.90;;;;;;5105479;28;20236;-67
2023/10/25 06:23:39;;;;;;;19.27;15.83;;;11.10;99.90;;;;;;5105695;28;20245;-67
2023/10/25 06:26:06;;;;;;;17.20;15.30;;;11.20;99.90;;;;;;5100160;27;20214;-66
2023/10/25 06:28:34;;;;;;;19.00;15.57;;;11.10;99.90;;;;;;5084958;28;20213;-67
2023/10/25 06:31:00;;;;;;;24.50;16.37;;;11.20;99.90;;;;;;5085273;28;20324;-67
2023/10/25 06:33:29;;;;;;;19.33;16.00;;;11.10;99.90;;;;;;5084818;28;20230;-67
2023/10/25 06:36:00;;;;;;;20.67;15.73;;;11.20;99.90;;;;;;5084876;28;20317;-67
2023/10/25 06:38:27;;;;;;;16.73;14.93;;;11.20;99.90;;;;;;5084469;28;20206;-66
2023/10/25 06:40:54;;;;;;;17.97;14.13;;;11.20;99.90;;;;;;5084668;28;20263;-67
2023/10/25 06:43:22;;;;;;;18.27;14.43;;;11.10;99.90;;;;;;5090013;28;20214;-67
2023/10/25 06:45:49;;;;;;;17.93;14.40;;;11.20;99.90;;;;;;5096191;28;20291;-67
2023/10/25 06:48:17;;;;;;;18.67;14.70;;;11.20;99.90;;;;;;5084469;28;20739;-67
2023/10/25 06:50:47;;;;;;;16.10;14.40;;;11.20;99.90;;;;;;5084851;28;20325;-67
2023/10/25 06:53:14;;;;;;;20.63;13.87;;;11.00;99.90;;;;;;5084444;28;20256;-66
2023/10/25 06:55:41;;;;;;;16.83;14.17;;;11.00;99.90;;;;;;5084736;28;20286;-66
2023/10/25 06:58:10;;;;;;;17.10;14.37;;;11.10;99.90;;;;;;5084900;28;20646;-66
2023/10/25 07:00:38;;;;;;;18.87;15.00;;;11.10;99.90;;;;;;5095899;28;20263;-66
2023/10/25 07:03:07;;;;;;;16.23;14.30;;;11.10;99.90;;;;;;5097069;28;20211;-65
2023/10/25 07:05:36;;;;;;;19.47;15.17;;;11.20;99.90;;;;;;5084687;28;20294;-65
2023/10/25 07:08:05;;;;;;;17.33;14.60;;;11.20;99.90;;;;;;5084895;28;20289;-66
2023/10/25 07:10:32;;;;;;;21.00;16.03;;;11.30;99.90;;;;;;5084503;28;20237;-66
2023/10/25 07:13:00;;;;;;;19.77;15.70;;;11.20;99.90;;;;;;5088463;28;20674;-66
2023/10/25 07:15:27;;;;;;;20.37;15.37;;;11.20;99.90;;;;;;5108875;28;20210;-66
2023/10/25 07:17:54;;;;;;;20.17;16.43;;;11.20;99.90;;;;;;5108887;28;20205;-65
2023/10/25 07:20:21;;;;;;;19.70;17.00;;;11.30;99.90;;;;;;5093199;27;20305;-66
2023/10/25 07:22:47;;;;;;;23.30;16.87;;;11.10;99.90;;;;;;5089042;28;20233;-67
2023/10/25 07:25:16;;;;;;;21.13;16.17;;;11.10;99.90;;;;;;5088434;28;20305;-67
2023/10/25 07:27:43;;;;;;;19.10;15.23;;;11.10;99.90;;;;;;5103171;28;20301;-67
2023/10/25 07:30:11;;;;;;;16.37;14.60;;;11.10;99.90;;;;;;5108831;28;20245;-67
2023/10/25 07:32:37;;;;;;;19.73;14.40;;;11.00;99.90;;;;;;5108666;28;20528;-66
2023/10/25 07:35:05;;;;;;;16.97;14.10;;;11.00;99.90;;;;;;5108928;28;20216;-67
2023/10/25 07:37:32;;;;;;;21.53;15.20;;;11.10;99.90;;;;;;5108209;28;20870;-67
2023/10/25 07:39:59;;;;;;;17.37;13.27;;;11.20;99.90;;;;;;5108749;28;20768;-67
2023/10/25 07:42:27;;;;;;;17.73;13.53;;;11.20;99.90;;;;;;5109168;28;20293;-67
2023/10/25 07:44:54;;;;;;;16.47;13.60;;;11.20;99.90;;;;;;5108936;28;20695;-67
2023/10/25 07:47:21;;;;;;;19.27;13.80;;;11.20;99.90;;;;;;5104516;28;20773;-67
2023/10/25 07:49:48;;;;;;;14.57;12.10;;;11.30;99.90;;;;;;5087867;28;20760;-67
2023/10/25 07:52:16;;;;;;;17.40;12.67;;;11.30;99.90;;;;;;5088137;28;20333;-66
2023/10/25 07:54:43;;;;;;;16.03;13.20;;;11.40;99.90;;;;;;5088716;28;20213;-67
2023/10/25 07:57:10;;;;;;;16.37;12.73;;;11.50;99.90;;;;;;5088660;28;20298;-67
2023/10/25 07:59:39;;;;;;;14.87;12.33;;;11.50;99.90;;;;;;5098199;28;20563;-67
2023/10/25 08:02:06;;;;;;;13.23;11.83;;;11.40;99.90;;;;;;5108843;28;20252;-67
2023/10/25 08:04:33;;;;;;;14.60;12.80;;;11.60;99.90;;;;;;5108309;28;20720;-67
2023/10/25 08:07:00;;;;;;;13.47;11.63;;;11.70;99.90;;;;;;5108395;28;20202;-66
2023/10/25 08:09:27;;;;;;;13.67;11.73;;;11.70;99.90;;;;;;5108628;28;20209;-67
2023/10/25 08:11:54;;;;;;;12.83;11.57;;;11.80;99.90;;;;;;5108711;28;20704;-67
2023/10/25 08:14:21;;;;;;;14.60;11.60;;;11.70;99.90;;;;;;5108161;28;20213;-67
2023/10/25 08:16:49;;;;;;;12.87;11.57;;;11.70;99.90;;;;;;5091288;28;20286;-67
2023/10/25 08:19:16;;;;;;;12.70;11.33;;;11.90;99.90;;;;;;5087645;28;20744;-67
2023/10/25 08:21:43;;;;;;;13.00;11.70;;;12.00;99.90;;;;;;5087966;28;20891;-67
2023/10/25 08:24:10;;;;;;;12.03;10.77;;;12.10;99.90;;;;;;5087031;28;20203;-67
2023/10/25 08:26:39;;;;;;;11.57;10.27;;;12.30;99.90;;;;;;5093576;28;20244;-67
2023/10/25 08:29:06;;;;;;;11.53;10.30;;;12.40;99.90;;;;;;5108268;28;20201;-67
2023/10/25 08:31:33;;;;;;;10.70;9.70;;;12.50;99.90;;;;;;5108036;28;20330;-67
2023/10/25 08:34:02;;;;;;;11.47;10.43;;;12.60;99.90;;;;;;5108046;28;20304;-67
2023/10/25 08:36:30;;;;;;;11.67;10.07;;;12.50;99.90;;;;;;5107979;28;20237;-67
2023/10/25 08:38:57;;;;;;;11.23;9.57;;;12.60;99.90;;;;;;5093659;28;20291;-67
2023/10/25 08:41:27;;;;;;;11.03;9.50;;;12.40;99.90;;;;;;5087362;28;20514;-67
2023/10/25 08:43:53;;;;;;;10.30;9.30;;;12.40;99.90;;;;;;5097003;28;20216;-67
2023/10/25 08:46:21;;;;;;;10.53;9.43;;;12.40;99.90;;;;;;5096962;28;20301;-67
2023/10/25 08:48:50;;;;;;;11.53;10.10;;;12.40;99.90;;;;;;5103169;28;20202;-66
2023/10/25 08:51:18;;;;;;;13.53;9.67;;;12.20;99.90;;;;;;5107273;28;20226;-67
2023/10/25 08:53:47;;;;;;;10.73;9.63;;;12.30;99.90;;;;;;5107666;28;20289;-67
2023/10/25 08:56:14;;;;;;;10.87;9.70;;;12.30;99.90;;;;;;5108050;28;20817;-67
2023/10/25 08:58:41;;;;;;;14.50;9.30;;;12.30;99.90;;;;;;5107893;28;20210;-67
2023/10/25 09:01:08;;;;;;;10.00;8.63;;;12.30;99.90;;;;;;5107113;28;20304;-67
2023/10/25 09:03:39;;;;;;;9.70;8.70;;;12.20;99.90;;;;;;5106860;28;20293;-65
2023/10/25 09:06:08;;;;;;;9.67;8.67;;;12.20;99.90;;;;;;5107088;28;20985;-66
2023/10/25 09:08:37;;;;;;;10.03;9.03;;;12.20;99.90;;;;;;5106770;28;20222;-65
2023/10/25 09:11:07;;;;;;;9.77;8.63;;;12.20;99.90;;;;;;5106880;28;20221;-66
2023/10/25 09:13:35;;;;;;;9.53;8.63;;;12.10;99.90;;;;;;5106905;28;20209;-67
2023/10/25 09:16:07;;;;;;;9.87;8.97;;;12.10;99.90;;;;;;5107204;28;20285;-65
2023/10/25 09:18:36;;;;;;;9.37;8.47;;;12.10;99.90;;;;;;5106863;28;20241;-65
2023/10/25 09:21:05;;;;;;;11.87;8.83;;;12.10;99.90;;;;;;5106858;28;20865;-65
2023/10/25 09:23:33;;;;;;;9.30;8.47;;;12.20;99.90;;;;;;5107024;28;20213;-65
2023/10/25 09:26:04;;;;;;;10.27;7.93;;;12.30;99.90;;;;;;5105711;28;20687;-65
2023/10/25 09:28:31;;;;;;;10.97;7.70;;;12.30;99.90;;;;;;5086431;28;20248;-65
2023/10/25 09:30:59;;;;;;;8.77;7.97;;;12.40;99.90;;;;;;5086380;28;20267;-65
2023/10/25 09:33:28;;;;;;;8.27;7.47;;;12.40;99.90;;;;;;5086134;28;20643;-65
2023/10/25 09:35:55;;;;;;;8.57;7.53;;;12.50;99.90;;;;;;5086175;28;20284;-65
2023/10/25 09:38:22;;;;;;;8.07;7.13;;;12.50;99.90;;;;;;5086531;28;20200;-67
2023/10/25 09:40:51;;;;;;;8.93;8.23;;;12.50;99.90;;;;;;5086036;28;20264;-65
2023/10/25 09:43:20;;;;;;;8.70;7.87;;;12.50;99.90;;;;;;5090339;28;20292;-65
2023/10/25 09:45:52;;;;;;;9.20;7.33;;;12.50;99.90;;;;;;5106691;28;20206;-65
2023/10/25 09:48:20;;;;;;;9.53;7.73;;;12.50;99.90;;;;;;5106189;28;20190;-65
2023/10/25 09:50:58;;;;;;;8.60;7.87;;;12.50;99.90;;;;;;5106302;28;20262;-65
2023/10/25 09:53:28;;;;;;;8.83;7.53;;;12.40;99.90;;;;;;5085411;28;20205;-65
2023/10/25 09:56:02;;;;;;;9.73;8.00;;;12.40;99.90;;;;;;5085909;28;20207;-65
2023/10/25 09:58:33;;;;;;;9.63;8.57;;;12.40;99.90;;;;;;5106218;28;20202;-65
2023/10/25 10:01:03;;;;;;;8.93;8.13;;;12.30;99.90;;;;;;5105675;28;20712;-65
2023/10/25 10:03:38;;;;;;;8.23;7.53;;;12.30;99.90;;;;;;5105686;28;20202;-65
2023/10/25 10:06:16;;;;;;;8.60;7.60;;;12.40;99.90;;;;;;5105456;28;20702;-65
2023/10/25 10:08:51;;;;;;;7.73;6.93;;;12.50;99.90;;;;;;5105649;28;20198;-65
2023/10/25 10:11:24;;;;;;;8.60;7.07;;;12.60;99.90;;;;;;5105377;28;20217;-65
2023/10/25 10:14:27;;;;;;;8.73;7.17;;;12.70;99.90;;;;;;5105538;28;20191;-65
2023/10/25 10:16:57;;;;;;;8.10;7.30;;;12.80;99.90;;;;;;5105793;28;20204;-65
2023/10/25 10:19:24;;;;;;;8.43;7.23;;;12.80;99.90;;;;;;5105652;27;20289;-65
2023/10/25 10:22:05;;;;;;;9.47;7.30;;;12.80;99.90;;;;;;5105981;28;20279;-65
2023/10/25 10:24:43;;;;;;;14.47;9.07;;;12.90;99.90;;;;;;5104931;28;20664;-65
2023/10/25 10:27:10;;;;;;;20.83;10.00;;;13.10;99.90;;;;;;5091712;28;20287;-65
2023/10/25 10:29:40;;;;;;;22.00;9.53;;;13.20;99.90;;;;;;5084659;28;20590;-65
2023/10/25 10:32:09;;;;;;;8.70;7.40;;;13.20;99.90;;;;;;5105131;28;20581;-65
2023/10/25 10:34:38;;;;;;;18.50;8.90;;;13.20;99.90;;;;;;5104943;28;20229;-65
2023/10/25 10:37:08;;;;;;;7.73;6.90;;;13.30;99.90;;;;;;5105282;28;20261;-65
2023/10/25 10:39:37;;;;;;;10.50;6.83;;;13.40;99.90;;;;;;5104803;28;20213;-65
2023/10/25 10:42:04;;;;;;;7.03;6.37;;;13.60;99.90;;;;;;5105592;28;20206;-66
2023/10/25 10:44:35;;;;;;;6.90;6.30;;;13.70;99.90;;;;;;5103312;28;20285;-65
2023/10/25 10:47:08;;;;;;;6.27;5.67;;;13.80;99.90;;;;;;5084640;28;20195;-66
2023/10/25 10:49:36;;;;;;;8.30;5.80;;;13.80;99.90;;;;;;5105392;28;20209;-65
2023/10/25 10:52:05;;;;;;;9.30;5.53;;;13.70;99.90;;;;;;5105298;28;20241;-65
2023/10/25 10:54:32;;;;;;;5.80;5.30;;;13.80;99.90;;;;;;5105664;28;20197;-66
2023/10/25 10:57:00;;;;;;;10.20;6.37;;;13.80;99.90;;;;;;5105754;28;20311;-66
2023/10/25 10:59:29;;;;;;;6.13;5.53;;;13.90;99.90;;;;;;5105818;28;20201;-66
2023/10/25 11:01:56;;;;;;;9.03;5.10;;;13.90;99.90;;;;;;5105996;28;20210;-65
2023/10/25 11:04:25;;;;;;;5.17;4.77;;;14.00;99.90;;;;;;5105455;28;20289;-66
2023/10/25 11:06:52;;;;;;;5.07;3.83;;;14.20;99.90;;;;;;5105606;28;20217;-66
2023/10/25 11:09:18;;;;;;;5.07;4.53;;;14.40;99.90;;;;;;5105423;28;20202;-66
2023/10/25 11:11:45;;;;;;;6.63;5.00;;;14.40;99.90;;;;;;5105358;28;20325;-66
2023/10/25 11:14:12;;;;;;;5.03;4.47;;;14.50;99.90;;;;;;5105419;28;20349;-66
2023/10/25 11:16:39;;;;;;;6.53;4.93;;;14.40;99.90;;;;;;5105191;28;20296;-66
2023/10/25 11:19:08;;;;;;;5.90;5.07;;;14.50;99.90;;;;;;5105488;28;20230;-66
2023/10/25 11:21:36;;;;;;;5.90;4.00;;;14.40;99.90;;;;;;5105091;28;20229;-66
2023/10/25 11:24:06;;;;;;;5.30;4.80;;;14.40;99.90;;;;;;5105200;28;20208;-66
2023/10/25 11:26:40;;;;;;;7.70;4.13;;;14.50;99.90;;;;;;5099859;28;20279;-66
2023/10/25 11:29:07;;;;;;;6.83;4.30;;;14.60;99.90;;;;;;5085054;28;20677;-66
2023/10/25 11:31:34;;;;;;;5.07;4.57;;;14.60;99.90;;;;;;5084636;28;21001;-66
2023/10/25 11:34:02;;;;;;;7.70;4.20;;;14.60;99.90;;;;;;5084388;28;20207;-66
2023/10/25 11:36:30;;;;;;;6.57;4.63;;;14.60;99.90;;;;;;5091504;28;20234;-66
2023/10/25 11:39:06;;;;;;;6.73;4.20;;;14.60;99.90;;;;;;5105079;28;20717;-66
2023/10/25 11:41:33;;;;;;;7.70;4.80;;;14.60;99.90;;;;;;5096480;28;20317;-66
2023/10/25 11:44:00;;;;;;;4.77;4.07;;;14.70;99.90;;;;;;5090515;28;20661;-66
2023/10/25 11:46:34;;;;;;;4.73;4.23;;;14.90;99.90;;;;;;5084588;28;20275;-66
2023/10/25 11:49:01;;;;;;;8.93;3.97;;;14.90;99.90;;;;;;5084706;28;20278;-66
2023/10/25 11:51:28;;;;;;;7.10;4.03;;;14.90;99.90;;;;;;5084205;28;20207;-66
2023/10/25 11:53:55;;;;;;;4.70;4.20;;;14.80;99.90;;;;;;5084537;28;20788;-66
2023/10/25 11:56:24;;;;;;;6.03;4.33;;;14.70;99.90;;;;;;5084680;28;20677;-66
2023/10/25 11:58:51;;;;;;;4.60;4.20;;;14.70;99.90;;;;;;5085191;28;20206;-66
2023/10/25 12:01:18;;;;;;;8.03;4.27;;;14.70;99.90;;;;;;5101122;28;20212;-66
2023/10/25 12:03:45;;;;;;;4.33;4.03;;;14.80;99.90;;;;;;5108457;28;20828;-66
2023/10/25 12:06:12;;;;;;;6.13;3.80;;;14.80;99.90;;;;;;5108211;28;21050;-66
2023/10/25 12:08:41;;;;;;;8.23;3.97;;;14.80;99.90;;;;;;5108193;28;20206;-66
2023/10/25 12:11:10;;;;;;;3.67;3.37;;;14.70;99.90;;;;;;5108368;28;20210;-66
2023/10/25 12:13:38;;;;;;;5.13;3.53;;;14.80;99.90;;;;;;5107988;28;20253;-66
2023/10/25 12:16:05;;;;;;;5.83;3.53;;;15.00;99.90;;;;;;5108229;28;20300;-66
2023/10/25 12:18:35;;;;;;;4.20;3.53;;;15.20;99.90;;;;;;5107555;28;20795;-66
2023/10/25 12:21:03;;;;;;;4.77;3.30;;;15.50;99.90;;;;;;5107898;28;20222;-66
2023/10/25 12:23:30;;;;;;;2.93;2.53;;;15.70;99.90;;;;;;5107952;28;20250;-66
2023/10/25 12:25:57;;;;;;;6.00;3.10;;;16.00;99.90;;;;;;5107522;28;20300;-66
2023/10/25 12:28:24;;;;;;;3.50;2.50;;;16.20;99.90;;;;;;5087139;28;20837;-66
2023/10/25 12:30:52;;;;;;;6.70;2.57;;;16.40;99.90;;;;;;5093798;28;20617;-66
2023/10/25 12:33:19;;;;;;;4.20;2.67;;;16.60;99.90;;;;;;5106951;28;20349;-66
2023/10/25 12:35:46;;;;;;;6.53;2.67;;;16.60;99.90;;;;;;5107369;28;20757;-66
2023/10/25 12:38:13;;;;;;;4.40;2.80;;;16.70;99.90;;;;;;5108074;28;20204;-66
2023/10/25 12:40:40;;;;;;;3.67;2.60;;;16.80;99.90;;;;;;5107319;28;20300;-66